South Hiram, Maine
Current Conditions -  °F | °C
As of 3:54 PM on Tuesday 27 Jan 2015 (Local Time) from KIZG Reporting Station
Heavy Snow Heavy Snow  
Wind Chill:   Ceiling: 600
Heat Index: 16°   Visibility: 0.25mi
Dew Point: 12°   Wind: 10mph
Humidity: 84%   Direction: 350°N
Pressure: 29.58"   Gusts: 21mph
Location:  43.8772°N, 70.8351°W
Report Text: KIZG 272054Z AUTO 35009G18KT 1/4SM +SN FZFG VV006 M09/M11 A2958 RMK AO2 SLP026 P0005 60007 T10891111 55004
Loading
Personal Weather Stations






























Interactive Weather Map New forecast layout! Learn more

10-Day Weather Forecast

Advertisements
Track Severe Weather on mobile